Time;durP1;ratioP1;P1;durP2;ratioP2;P2;SDS_P1;SDS_P2;PMS_P1;PMS_P2;Temp;Humidity;BMP_temperature;BMP_pressure;BME280_temperature;BME280_humidity;BME280_pressure;Samples;Min_cycle;Max_cycle;Signal;HPM_P1;HPM_P2
2021/04/02 00:01:33;;;;;;;23.58;12.65;;;;;;;14.76;47.34;98606.44;258387;1114;114801;-75
2021/04/02 00:06:39;;;;;;;25.55;12.40;;;;;;;14.73;47.51;98606.70;258374;1116;114923;-75
2021/04/02 00:11:47;;;;;;;25.45;12.48;;;;;;;14.67;47.59;98604.55;258457;1116;114965;-74
2021/04/02 00:16:56;;;;;;;28.15;12.98;;;;;;;14.62;47.78;98602.27;258239;1116;115085;-74
2021/04/02 00:22:00;;;;;;;25.63;13.10;;;;;;;14.56;47.63;98592.08;258185;1106;115422;-87
2021/04/02 00:27:03;;;;;;;23.68;12.80;;;;;;;14.51;47.93;98598.83;257224;1116;114919;-86
2021/04/02 00:32:07;;;;;;;26.33;13.58;;;;;;;14.46;48.25;98603.68;258417;1116;114915;-86
2021/04/02 00:37:11;;;;;;;27.43;14.23;;;;;;;14.44;48.12;98593.11;258407;1116;115573;-86
2021/04/02 00:42:14;;;;;;;27.47;14.23;;;;;;;14.39;48.41;98598.84;257293;1116;114972;-87
2021/04/02 00:47:18;;;;;;;27.55;14.68;;;;;;;14.33;48.18;98596.67;258273;1116;114930;-87
2021/04/02 00:52:21;;;;;;;27.95;14.65;;;;;;;14.29;48.71;98607.78;256481;1116;114940;-86
2021/04/02 00:57:25;;;;;;;24.95;13.28;;;;;;;14.15;49.27;98603.59;257470;1115;114894;-86
2021/04/02 01:02:28;;;;;;;26.65;13.43;;;;;;;14.01;49.54;98602.06;258371;1116;114974;-86
2021/04/02 01:07:33;;;;;;;25.98;12.93;;;;;;;13.90;50.73;98607.47;258400;1116;115192;-87
2021/04/02 01:12:37;;;;;;;21.90;10.43;;;;;;;13.78;51.82;98611.98;258384;1114;114842;-87
2021/04/02 01:17:43;;;;;;;19.45;10.43;;;;;;;13.68;51.82;98606.53;258044;1116;115314;-87
2021/04/02 01:22:47;;;;;;;21.75;9.90;;;;;;;13.69;52.96;98626.13;257597;1116;115130;-87
2021/04/02 01:28:13;;;;;;;23.08;9.65;;;;;;;13.56;52.70;98626.27;258359;1115;114739;-88
2021/04/02 01:33:18;;;;;;;21.18;9.80;;;;;;;13.33;53.45;98622.77;257740;1116;116788;-87
2021/04/02 01:38:26;;;;;;;20.35;9.20;;;;;;;13.19;53.98;98620.31;257270;1116;115020;-88
2021/04/02 01:43:50;;;;;;;19.38;10.35;;;;;;;13.06;54.17;98623.10;258517;1114;115434;-87
2021/04/02 01:48:59;;;;;;;23.78;11.05;;;;;;;12.97;55.26;98616.65;258397;1116;114943;-88
2021/04/02 01:54:05;;;;;;;21.63;10.08;;;;;;;12.92;55.08;98612.66;258385;1114;115667;-87
2021/04/02 01:59:09;;;;;;;25.85;10.20;;;;;;;12.89;55.47;98618.24;257818;1114;115164;-87
2021/04/02 02:04:15;;;;;;;;;;;;;;;12.88;56.77;98620.06;258392;1116;115586;-88
2021/04/02 02:09:23;;;;;;;;;;;;;;;12.92;56.42;98620.67;256910;1116;102965;-87
2021/04/02 02:14:30;;;;;;;22.15;10.23;;;;;;;12.93;56.35;98622.37;258446;1116;101408;-81
2021/04/02 02:19:44;;;;;;;25.38;10.70;;;;;;;12.91;56.10;98619.83;257523;1116;114975;-82
2021/04/02 02:24:47;;;;;;;24.38;10.88;;;;;;;12.86;57.09;98623.81;258441;1114;114743;-82
2021/04/02 02:29:53;;;;;;;24.28;10.95;;;;;;;12.79;56.84;98631.45;256856;1116;116860;-82
2021/04/02 02:34:57;;;;;;;20.15;10.65;;;;;;;12.70;57.29;98640.17;257720;1117;115220;-82
2021/04/02 02:39:59;;;;;;;23.05;11.03;;;;;;;12.66;57.55;98641.38;258348;1116;115308;-83
2021/04/02 02:45:07;;;;;;;19.95;11.38;;;;;;;12.64;57.44;98633.50;258384;1116;115047;-83
2021/04/02 02:50:15;;;;;;;26.65;12.95;;;;;;;12.63;57.96;98649.63;258445;1114;115124;-82
2021/04/02 02:55:22;;;;;;;27.08;13.90;;;;;;;12.59;57.35;98648.16;258291;1116;115060;-82
2021/04/02 03:00:37;;;;;;;24.70;14.35;;;;;;;12.59;57.75;98651.67;258425;1116;115173;-82
2021/04/02 03:05:45;;;;;;;24.55;14.78;;;;;;;12.58;57.70;98657.99;258446;1116;114871;-81
2021/04/02 03:10:50;;;;;;;25.10;16.15;;;;;;;12.61;58.09;98646.23;258339;1114;115122;-81
2021/04/02 03:15:58;;;;;;;26.35;17.70;;;;;;;12.64;58.30;98651.34;258250;1116;115200;-82
2021/04/02 03:21:02;;;;;;;35.78;19.93;;;;;;;12.63;58.35;98649.63;258458;1116;114840;-82
2021/04/02 03:26:05;;;;;;;33.43;21.33;;;;;;;12.62;58.45;98653.27;258367;1116;115160;-81
2021/04/02 03:31:09;;;;;;;34.00;23.18;;;;;;;12.61;58.61;98652.42;258327;1116;115045;-81
2021/04/02 03:36:14;;;;;;;47.28;27.08;;;;;;;12.59;58.19;98664.17;258363;1116;115375;-81
2021/04/02 03:41:32;;;;;;;40.70;26.68;;;;;;;12.53;57.97;98663.70;258405;1116;115077;-82
2021/04/02 03:46:40;;;;;;;40.63;27.55;;;;;;;12.49;58.46;98664.02;258375;1116;115410;-81
2021/04/02 03:51:47;;;;;;;39.85;25.88;;;;;;;12.45;58.07;98674.08;258350;1114;114944;-82
2021/04/02 03:56:54;;;;;;;28.48;19.03;;;;;;;12.36;58.12;98689.93;258289;1114;115314;-81
2021/04/02 04:02:00;;;;;;;20.83;12.75;;;;;;;12.29;58.03;98700.20;258328;1115;114858;-82
2021/04/02 04:07:08;;;;;;;11.85;7.58;;;;;;;12.18;58.71;98711.68;258366;1116;114776;-82
2021/04/02 04:12:16;;;;;;;9.30;5.88;;;;;;;12.07;57.94;98711.63;258285;1117;114824;-81
2021/04/02 04:17:23;;;;;;;5.60;4.08;;;;;;;11.95;57.48;98723.19;258400;1114;114587;-81
2021/04/02 04:22:32;;;;;;;4.18;3.13;;;;;;;11.76;57.63;98735.16;257041;1116;114799;-82
2021/04/02 04:27:42;;;;;;;4.83;3.23;;;;;;;11.59;57.70;98738.17;258372;1114;114778;-81
2021/04/02 04:32:45;;;;;;;4.00;3.10;;;;;;;11.45;57.53;98741.82;257966;1116;115338;-83
2021/04/02 04:37:50;;;;;;;4.93;3.50;;;;;;;11.39;57.49;98750.23;254733;1116;115085;-86
2021/04/02 04:42:53;;;;;;;5.00;3.43;;;;;;;11.38;58.10;98772.52;258422;1116;114760;-82
2021/04/02 04:47:56;;;;;;;4.88;3.38;;;;;;;11.26;57.59;98779.54;258403;1116;114885;-83
2021/04/02 04:53:03;;;;;;;4.88;3.40;;;;;;;11.23;58.49;98790.40;258306;1115;114432;-83
2021/04/02 04:58:10;;;;;;;7.18;3.98;;;;;;;11.12;58.04;98796.47;258472;1116;114488;-83
2021/04/02 05:03:19;;;;;;;5.30;4.00;;;;;;;10.99;57.92;98808.91;258258;1116;115422;-82
2021/04/02 05:08:29;;;;;;;5.45;4.40;;;;;;;10.89;57.83;98815.80;258412;1115;115907;-82
2021/04/02 05:13:35;;;;;;;6.63;5.55;;;;;;;10.79;57.59;98828.87;257126;1116;115106;-81
2021/04/02 05:18:37;;;;;;;5.90;5.30;;;;;;;10.62;57.74;98827.31;255525;1116;114495;-81
2021/04/02 05:23:40;;;;;;;7.43;6.00;;;;;;;10.47;57.91;98825.67;258499;1116;114936;-80
2021/04/02 05:28:43;;;;;;;7.40;6.60;;;;;;;10.29;58.00;98837.48;258405;1116;115561;-80
2021/04/02 05:33:46;;;;;;;8.13;6.13;;;;;;;10.15;57.87;98852.48;258338;1114;114646;-79
2021/04/02 05:38:49;;;;;;;9.30;4.78;;;;;;;10.03;57.76;98874.54;258345;1116;114521;-78
2021/04/02 05:43:56;;;;;;;8.10;4.73;;;;;;;9.87;57.53;98877.28;258441;1114;114812;-80
2021/04/02 05:49:05;;;;;;;5.23;4.73;;;;;;;9.78;57.50;98888.47;258524;1115;114336;-77
2021/04/02 05:54:11;;;;;;;6.23;4.53;;;;;;;9.67;57.50;98893.59;258538;1116;114444;-79
2021/04/02 05:59:14;;;;;;;5.83;5.10;;;;;;;9.59;57.76;98901.19;258396;1116;114514;-79
2021/04/02 06:04:18;;;;;;;6.45;5.28;;;;;;;9.47;57.69;98910.73;258365;1117;115217;-79
2021/04/02 06:09:22;;;;;;;5.23;4.73;;;;;;;9.39;57.89;98905.03;254585;1114;114651;-77
2021/04/02 06:14:25;;;;;;;3.68;3.38;;;;;;;9.28;57.44;98903.02;254573;1116;114415;-79
2021/04/02 06:19:28;;;;;;;3.90;3.50;;;;;;;9.20;57.63;98908.78;258389;1116;114500;-80
2021/04/02 06:24:46;;;;;;;4.55;3.78;;;;;;;9.15;57.24;98905.52;258456;1116;114582;-80
2021/04/02 06:30:03;;;;;;;5.25;4.00;;;;;;;9.06;57.00;98908.70;258425;1117;114386;-79
2021/04/02 06:35:10;;;;;;;4.43;3.98;;;;;;;8.98;57.14;98929.54;258301;1108;114627;-79
2021/04/02 06:40:19;;;;;;;5.13;3.90;;;;;;;8.95;57.25;98935.88;258474;1116;114485;-79
2021/04/02 06:45:22;;;;;;;4.00;3.60;;;;;;;8.96;57.28;98949.99;258243;1116;115216;-78
2021/04/02 06:50:26;;;;;;;4.13;3.48;;;;;;;8.92;57.37;98929.88;258423;1116;114426;-79
2021/04/02 06:55:30;;;;;;;4.18;3.78;;;;;;;8.88;57.31;98936.31;258418;1115;114520;-78
2021/04/02 07:00:39;;;;;;;5.10;4.35;;;;;;;8.87;57.47;98932.81;258423;1114;114392;-82
2021/04/02 07:05:42;;;;;;;4.78;4.20;;;;;;;8.87;57.72;98939.92;258388;1116;114208;-79
2021/04/02 07:10:46;;;;;;;4.55;3.70;;;;;;;8.87;57.16;98951.39;258291;1114;114513;-79
2021/04/02 07:15:51;;;;;;;5.83;3.33;;;;;;;8.85;56.76;98957.72;258311;1116;115335;-79
2021/04/02 07:20:55;;;;;;;5.05;3.80;;;;;;;8.84;57.44;98964.83;255712;1117;114991;-81
2021/04/02 07:25:58;;;;;;;4.63;3.85;;;;;;;8.81;57.56;98985.38;258286;1109;114195;-79
2021/04/02 07:31:04;;;;;;;5.85;4.20;;;;;;;8.81;57.32;99001.29;258423;1116;114699;-78
2021/04/02 07:36:10;;;;;;;4.95;4.45;;;;;;;8.81;57.09;99007.45;256989;1116;114309;-83
2021/04/02 07:41:16;;;;;;;5.03;4.50;;;;;;;8.82;56.97;99014.45;258399;1115;114148;-78
2021/04/02 07:46:25;;;;;;;5.37;3.67;;;;;;;8.82;56.79;99021.56;258329;1116;114542;-77
2021/04/02 07:51:49;;;;;;;4.20;3.80;;;;;;;8.83;56.37;99025.92;258302;1115;114398;-78
2021/04/02 07:56:55;;;;;;;7.05;4.13;;;;;;;8.82;56.70;99032.18;258367;1116;114310;-79
2021/04/02 08:02:03;;;;;;;6.00;3.70;;;;;;;8.79;56.35;99029.69;257724;1116;115878;-80
2021/04/02 08:07:14;;;;;;;4.83;3.80;;;;;;;8.76;56.84;99038.67;258215;1116;114244;-79
2021/04/02 08:12:17;;;;;;;4.78;4.10;;;;;;;8.74;56.10;99044.08;258401;1115;114859;-79
2021/04/02 08:17:24;;;;;;;4.05;3.58;;;;;;;8.73;56.80;99052.98;258382;1109;114673;-78
2021/04/02 08:22:27;;;;;;;6.95;3.60;;;;;;;8.71;56.11;99059.30;258176;1116;114465;-78
2021/04/02 08:27:31;;;;;;;4.63;3.68;;;;;;;8.69;56.21;99064.67;258182;1116;114231;-77
2021/04/02 08:32:44;;;;;;;4.50;4.10;;;;;;;8.67;56.04;99063.92;258370;1116;114341;-78
2021/04/02 08:38:01;;;;;;;4.30;3.58;;;;;;;8.65;55.99;99063.13;258409;1114;115005;-79
2021/04/02 08:43:12;;;;;;;8.38;4.08;;;;;;;8.70;56.57;99058.45;258370;1116;114737;-79
2021/04/02 08:48:35;;;;;;;4.60;3.93;;;;;;;8.77;56.42;99058.98;258246;1116;114243;-79
2021/04/02 08:53:40;;;;;;;4.43;3.85;;;;;;;8.80;56.07;99064.13;258329;1116;114728;-80
2021/04/02 08:58:45;;;;;;;4.43;3.80;;;;;;;8.89;56.21;99054.78;258010;1116;114343;-82
2021/04/02 09:03:48;;;;;;;5.03;4.03;;;;;;;8.98;56.38;99052.48;258391;1116;114802;-79
2021/04/02 09:08:51;;;;;;;6.05;4.80;;;;;;;9.07;56.16;99058.21;258371;1109;114130;-80
2021/04/02 09:13:53;;;;;;;7.70;4.68;;;;;;;9.16;55.99;99070.98;258305;1114;114532;-80
2021/04/02 09:18:57;;;;;;;5.55;4.78;;;;;;;9.24;55.62;99061.66;258407;1116;114451;-80
2021/04/02 09:24:00;;;;;;;9.53;6.03;;;;;;;9.28;55.40;99066.80;258352;1114;115085;-80
2021/04/02 09:29:03;;;;;;;6.83;5.40;;;;;;;9.37;55.99;99068.92;258222;1114;114770;-80
2021/04/02 09:34:09;;;;;;;6.55;5.43;;;;;;;9.43;56.00;99064.11;258404;1115;115340;-80
2021/04/02 09:39:12;;;;;;;6.08;4.85;;;;;;;9.53;55.24;99064.45;257261;1116;114860;-82
2021/04/02 09:44:18;;;;;;;6.50;5.65;;;;;;;9.53;54.63;99063.59;258369;1116;114634;-80
2021/04/02 09:49:24;;;;;;;5.75;4.88;;;;;;;9.49;54.04;99068.23;258463;1116;114433;-80
2021/04/02 09:54:30;;;;;;;6.17;5.20;;;;;;;9.50;54.15;99067.28;257642;1116;114680;-80
2021/04/02 09:59:34;;;;;;;7.65;5.55;;;;;;;9.52;54.55;99062.75;256876;1116;115244;-78
2021/04/02 10:04:37;;;;;;;8.23;5.20;;;;;;;9.58;53.97;99057.09;258444;1115;114770;-79
2021/04/02 10:09:40;;;;;;;7.73;5.38;;;;;;;9.59;53.55;99056.13;256738;1115;114591;-89
2021/04/02 10:14:43;;;;;;;7.45;5.53;;;;;;;9.63;54.09;99048.84;258032;1116;114312;-84
2021/04/02 10:19:47;;;;;;;7.40;5.63;;;;;;;9.73;53.85;99054.48;255436;1116;114330;-84
2021/04/02 10:24:52;;;;;;;7.38;5.68;;;;;;;9.80;53.89;99047.86;255855;1116;115188;-81
2021/04/02 10:29:55;;;;;;;7.03;4.90;;;;;;;9.88;53.76;99050.91;257299;1116;114269;-81
2021/04/02 10:34:57;;;;;;;7.53;5.27;;;;;;;9.96;53.35;99046.01;254845;1116;115126;-81
2021/04/02 10:40:01;;;;;;;7.10;4.85;;;;;;;10.17;52.97;99042.06;254474;1116;114786;-82
2021/04/02 10:45:05;;;;;;;7.73;5.60;;;;;;;10.69;52.74;99034.52;257855;1116;114978;-80
2021/04/02 10:50:08;;;;;;;7.00;5.60;;;;;;;10.93;53.00;99032.11;258340;1109;115272;-81
2021/04/02 10:55:12;;;;;;;5.95;5.25;;;;;;;10.85;51.53;99036.12;258467;1116;114801;-80
2021/04/02 11:00:18;;;;;;;6.13;5.35;;;;;;;10.70;51.42;99033.55;257172;1116;114625;-80
2021/04/02 11:05:21;;;;;;;5.73;5.13;;;;;;;11.02;52.12;99026.20;256858;1116;114961;-80
2021/04/02 11:10:24;;;;;;;7.48;5.05;;;;;;;11.44;51.67;99017.22;257154;1116;114078;-81
2021/04/02 11:15:27;;;;;;;5.23;4.70;;;;;;;11.88;50.81;99021.43;256242;1116;114665;-80
2021/04/02 11:20:30;;;;;;;7.05;4.73;;;;;;;12.29;51.41;99009.73;255673;1116;114696;-81
2021/04/02 11:25:33;;;;;;;6.68;4.65;;;;;;;12.44;49.38;99008.67;258404;1116;114913;-83
2021/04/02 11:30:36;;;;;;;5.23;4.73;;;;;;;12.42;49.08;98999.91;253093;1116;114433;-83
2021/04/02 11:35:38;;;;;;;5.98;4.25;;;;;;;12.59;49.81;98989.86;256924;1116;114609;-83
2021/04/02 11:40:42;;;;;;;6.97;4.03;;;;;;;12.99;48.87;98982.52;256350;1116;114399;-83
2021/04/02 11:45:44;;;;;;;5.90;4.20;;;;;;;13.42;48.41;98980.23;255869;1116;114453;-81
2021/04/02 11:50:47;;;;;;;4.58;3.40;;;;;;;13.66;47.38;98971.34;258286;1116;114748;-81
2021/04/02 11:55:50;;;;;;;5.83;3.58;;;;;;;13.89;46.94;98957.06;258411;1116;114501;-80
2021/04/02 12:00:53;;;;;;;5.45;3.50;;;;;;;14.30;46.68;98949.44;258422;1117;114653;-80
2021/04/02 12:06:00;;;;;;;3.53;3.20;;;;;;;14.68;46.91;98945.59;257147;1116;114156;-79
2021/04/02 12:11:04;;;;;;;4.65;3.35;;;;;;;15.04;45.92;98931.85;257354;1116;114955;-81
2021/04/02 12:16:07;;;;;;;5.20;3.40;;;;;;;15.28;45.67;98920.93;253540;1116;115367;-80
2021/04/02 12:21:10;;;;;;;5.10;3.08;;;;;;;15.34;44.08;98915.06;257531;1116;114921;-79
2021/04/02 12:26:13;;;;;;;4.93;3.10;;;;;;;15.46;44.55;98906.98;258421;1116;114411;-80
2021/04/02 12:31:15;;;;;;;3.53;2.80;;;;;;;15.87;44.39;98914.22;258278;1116;114817;-80
2021/04/02 12:36:18;;;;;;;3.33;2.70;;;;;;;16.19;43.93;98900.68;256944;1116;114707;-78
2021/04/02 12:41:22;;;;;;;5.10;3.33;;;;;;;16.43;43.29;98889.61;255842;1116;114775;-78
2021/04/02 12:46:26;;;;;;;3.85;2.83;;;;;;;16.40;42.15;98883.66;256673;1116;114975;-79
2021/04/02 12:51:29;;;;;;;4.85;2.90;;;;;;;16.43;42.26;98886.92;258354;1116;114437;-79
2021/04/02 12:56:32;;;;;;;6.03;3.08;;;;;;;16.70;42.32;98872.02;258343;1116;114528;-80
2021/04/02 13:01:35;;;;;;;3.90;3.30;;;;;;;16.95;41.93;98855.41;258407;1116;114372;-84
2021/04/02 13:06:38;;;;;;;5.85;4.48;;;;;;;17.08;41.24;98854.27;258468;1116;114329;-84
2021/04/02 13:11:41;;;;;;;5.58;4.10;;;;;;;17.19;40.95;98849.62;258414;1116;115298;-84
2021/04/02 13:16:44;;;;;;;4.90;3.78;;;;;;;17.20;40.46;98832.48;256012;1116;115272;-83
2021/04/02 13:21:47;;;;;;;5.90;4.13;;;;;;;17.14;39.70;98835.73;258362;1116;114507;-83
2021/04/02 13:26:50;;;;;;;6.27;4.33;;;;;;;17.00;40.43;98828.09;251931;1116;115007;-82
2021/04/02 13:31:52;;;;;;;5.43;4.23;;;;;;;17.17;39.95;98823.84;253868;1116;114288;-85
2021/04/02 13:36:55;;;;;;;5.18;3.63;;;;;;;17.30;39.61;98815.50;257995;1116;114690;-80
2021/04/02 13:41:59;;;;;;;5.03;3.98;;;;;;;17.30;39.36;98810.96;256407;1116;115324;-79
2021/04/02 13:47:01;;;;;;;5.83;3.53;;;;;;;17.44;38.88;98806.97;258004;1117;114410;-79
2021/04/02 13:52:05;;;;;;;5.10;3.53;;;;;;;17.65;38.54;98794.17;258333;1116;114617;-79
2021/04/02 13:57:08;;;;;;;4.60;2.93;;;;;;;17.91;38.24;98793.56;256641;1116;114271;-84
2021/04/02 14:02:11;;;;;;;3.10;2.80;;;;;;;18.00;37.74;98787.27;252559;1116;114647;-77
2021/04/02 14:07:14;;;;;;;3.58;2.73;;;;;;;17.79;37.62;98790.19;257436;1116;114422;-77
2021/04/02 14:12:17;;;;;;;4.45;2.85;;;;;;;17.30;36.93;98784.06;258335;1116;114525;-78
2021/04/02 14:17:20;;;;;;;5.98;3.18;;;;;;;16.85;36.80;98781.98;258415;1116;114797;-78
2021/04/02 14:22:23;;;;;;;4.25;3.13;;;;;;;16.35;36.57;98773.12;258248;1116;114118;-78
2021/04/02 14:27:29;;;;;;;4.43;3.20;;;;;;;15.99;37.03;98770.04;258457;1116;114861;-77
2021/04/02 14:32:32;;;;;;;4.23;3.15;;;;;;;15.67;37.31;98752.27;257705;1116;114649;-79
2021/04/02 14:37:35;;;;;;;4.08;3.10;;;;;;;15.35;37.70;98757.70;258391;1116;113913;-77
2021/04/02 14:42:38;;;;;;;4.88;3.30;;;;;;;15.16;37.82;98755.77;258263;1116;115396;-78
2021/04/02 14:47:41;;;;;;;4.33;3.28;;;;;;;15.00;38.28;98747.33;258619;1116;114044;-78
2021/04/02 14:52:45;;;;;;;6.60;3.30;;;;;;;14.86;37.95;98751.17;258185;1116;114072;-83
2021/04/02 14:57:48;;;;;;;6.18;3.70;;;;;;;14.77;37.92;98749.27;258433;1116;114262;-77
2021/04/02 15:02:52;;;;;;;7.43;3.90;;;;;;;14.73;37.98;98743.31;258388;1116;114411;-78
2021/04/02 15:07:55;;;;;;;4.73;3.35;;;;;;;14.67;37.68;98738.47;257784;1116;114641;-78
2021/04/02 15:13:00;;;;;;;6.70;3.83;;;;;;;14.56;37.93;98731.33;257971;1116;114653;-76
2021/04/02 15:18:03;;;;;;;6.30;3.88;;;;;;;14.46;37.55;98737.55;258397;1116;114612;-76
2021/04/02 15:23:07;;;;;;;4.80;3.45;;;;;;;14.37;38.15;98731.15;258264;1116;114281;-75
2021/04/02 15:28:09;;;;;;;4.58;3.65;;;;;;;14.35;38.52;98723.23;258381;1116;115119;-77
2021/04/02 15:33:12;;;;;;;6.23;3.68;;;;;;;14.35;38.09;98728.58;255573;1116;114763;-86
2021/04/02 15:38:15;;;;;;;6.43;4.95;;;;;;;14.31;38.08;98720.94;256730;1116;114995;-78
2021/04/02 15:43:18;;;;;;;11.38;5.48;;;;;;;14.22;38.36;98719.02;258298;1116;114472;-78
2021/04/02 15:48:21;;;;;;;10.00;6.65;;;;;;;14.05;39.05;98715.04;256771;1116;114786;-78
2021/04/02 15:53:24;;;;;;;8.75;6.70;;;;;;;13.87;38.86;98717.39;258331;1116;114771;-78
2021/04/02 15:58:26;;;;;;;11.15;7.75;;;;;;;13.72;38.72;98714.98;258370;1116;114589;-75
2021/04/02 16:03:30;;;;;;;13.90;7.53;;;;;;;13.60;38.92;98707.08;257420;1116;114663;-74
2021/04/02 16:08:33;;;;;;;15.55;8.63;;;;;;;13.54;39.44;98704.89;258473;1116;114569;-74
2021/04/02 16:13:37;;;;;;;12.33;9.45;;;;;;;13.46;39.65;98703.68;258350;1116;114720;-74
2021/04/02 16:18:41;;;;;;;13.98;9.55;;;;;;;13.54;40.29;98704.89;258352;1116;114721;-74
2021/04/02 16:23:45;;;;;;;15.05;9.38;;;;;;;13.53;39.88;98703.20;258310;1116;114242;-73
2021/04/02 16:28:49;;;;;;;13.83;9.55;;;;;;;13.46;39.97;98708.18;255983;1116;115148;-73
2021/04/02 16:33:52;;;;;;;12.83;9.38;;;;;;;13.35;40.34;98701.02;258367;1116;114938;-75
2021/04/02 16:38:55;;;;;;;13.50;9.95;;;;;;;13.26;39.83;98707.08;258452;1116;115397;-73
2021/04/02 16:43:58;;;;;;;13.48;9.85;;;;;;;13.19;40.59;98690.64;258332;1116;114757;-74
2021/04/02 16:49:01;;;;;;;13.80;9.65;;;;;;;13.10;40.25;98711.88;258529;1116;114953;-73
2021/04/02 16:54:04;;;;;;;14.23;9.87;;;;;;;13.02;40.98;98697.30;258393;1116;114407;-74
2021/04/02 16:59:07;;;;;;;16.73;10.03;;;;;;;12.83;40.62;98705.02;256245;1117;114711;-75
2021/04/02 17:04:10;;;;;;;15.57;9.90;;;;;;;12.62;40.31;98703.98;253769;1116;115060;-72
2021/04/02 17:09:13;;;;;;;14.58;10.43;;;;;;;12.45;40.90;98706.11;258380;1116;114278;-73
2021/04/02 17:14:17;;;;;;;16.73;11.48;;;;;;;12.32;40.64;98699.98;254343;1116;115074;-75
2021/04/02 17:19:20;;;;;;;16.10;10.65;;;;;;;12.18;41.41;98703.68;256928;1116;115317;-73
2021/04/02 17:24:23;;;;;;;18.88;12.05;;;;;;;12.06;41.50;98720.61;257463;1116;115205;-73
2021/04/02 17:29:26;;;;;;;15.98;11.83;;;;;;;11.95;41.63;98723.19;258394;1116;114470;-74
2021/04/02 17:34:29;;;;;;;18.35;12.85;;;;;;;11.84;41.77;98726.63;258305;1109;115010;-74
2021/04/02 17:39:50;;;;;;;18.30;13.58;;;;;;;11.70;42.12;98740.08;254743;1116;114964;-74
2021/04/02 17:44:53;;;;;;;20.03;15.58;;;;;;;11.59;42.62;98736.36;258147;1116;114961;-75
2021/04/02 17:49:56;;;;;;;24.00;15.98;;;;;;;11.53;42.78;98749.27;258477;1115;114996;-75
2021/04/02 17:54:59;;;;;;;24.28;15.83;;;;;;;11.47;42.75;98739.03;258409;1116;115221;-72
2021/04/02 18:00:09;;;;;;;25.00;16.90;;;;;;;11.39;42.83;98746.73;258477;1115;114859;-74
2021/04/02 18:05:12;;;;;;;25.03;17.40;;;;;;;11.35;42.98;98751.42;258404;1116;115332;-72
2021/04/02 18:10:29;;;;;;;24.40;18.58;;;;;;;11.31;43.57;98758.77;256073;1114;115094;-74
2021/04/02 18:15:32;;;;;;;30.75;18.33;;;;;;;11.23;43.40;98755.77;258343;1116;114942;-72
2021/04/02 18:20:35;;;;;;;27.47;18.40;;;;;;;11.20;43.93;98758.64;258312;1116;114942;-72
2021/04/02 18:25:39;;;;;;;31.73;19.93;;;;;;;11.13;43.71;98755.55;258307;1115;115143;-73
2021/04/02 18:30:42;;;;;;;31.08;20.73;;;;;;;11.07;44.27;98763.11;258387;1116;115549;-72
2021/04/02 18:35:45;;;;;;;29.75;20.45;;;;;;;11.02;44.51;98774.08;257138;1116;115318;-78
2021/04/02 18:40:48;;;;;;;33.30;21.25;;;;;;;10.99;44.70;98768.96;258452;1116;115163;-76
2021/04/02 18:45:51;;;;;;;32.20;21.13;;;;;;;10.98;44.48;98772.59;258422;1116;115659;-76
2021/04/02 18:50:54;;;;;;;30.33;21.63;;;;;;;10.97;44.82;98770.90;257526;1115;115124;-75
2021/04/02 18:55:57;;;;;;;32.68;22.40;;;;;;;10.94;44.71;98767.56;258392;1115;115247;-75
2021/04/02 19:01:00;;;;;;;34.18;21.63;;;;;;;10.93;44.94;98768.52;258347;1116;115484;-73
2021/04/02 19:06:03;;;;;;;28.90;22.40;;;;;;;10.90;45.20;98753.60;258391;1116;115002;-75
2021/04/02 19:11:07;;;;;;;30.98;21.80;;;;;;;10.87;45.83;98729.88;258345;1117;117585;-75
2021/04/02 19:16:10;;;;;;;36.83;22.65;;;;;;;10.78;45.32;98733.16;258399;1118;115953;-74
2021/04/02 19:21:13;;;;;;;34.78;22.83;;;;;;;10.67;46.19;98733.04;258405;1116;114987;-76
2021/04/02 19:26:16;;;;;;;;;;;;;;;10.52;46.04;98741.07;258297;1114;115083;-73
2021/04/02 19:31:19;;;;;;;39.65;24.28;;;;;;;10.35;46.84;98739.53;258259;1116;102624;-74
2021/04/02 19:36:22;;;;;;;42.48;25.55;;;;;;;10.19;46.42;98742.33;258479;1116;115044;-73
2021/04/02 19:41:27;;;;;;;40.88;25.58;;;;;;;10.05;46.89;98723.73;258386;1116;115449;-76
2021/04/02 19:46:29;;;;;;;43.83;26.55;;;;;;;9.94;47.35;98734.22;258447;1116;115558;-74
2021/04/02 19:51:32;;;;;;;41.80;25.35;;;;;;;9.87;47.48;98730.25;258393;1116;114766;-73
2021/04/02 19:56:34;;;;;;;42.83;26.08;;;;;;;9.82;47.77;98729.70;258078;1116;115337;-73
2021/04/02 20:01:37;;;;;;;35.97;22.97;;;;;;;9.75;47.66;98725.70;258353;1116;114836;-76
2021/04/02 20:06:40;;;;;;;34.93;19.25;;;;;;;9.71;46.81;98720.62;257848;1115;114518;-74
2021/04/02 20:11:42;;;;;;;34.25;19.73;;;;;;;9.67;46.94;98716.42;257762;1116;115027;-76
2021/04/02 20:16:45;;;;;;;27.95;18.13;;;;;;;9.62;46.92;98712.38;258003;1116;114895;-74
2021/04/02 20:21:48;;;;;;;28.80;17.70;;;;;;;9.60;46.88;98700.98;258403;1114;114771;-74
2021/04/02 20:26:52;;;;;;;28.45;17.38;;;;;;;9.55;46.77;98700.43;258493;1114;114778;-68
2021/04/02 20:31:56;;;;;;;40.10;20.40;;;;;;;9.48;46.61;98694.66;257591;1116;114926;-70
2021/04/02 20:36:58;;;;;;;46.48;27.18;;;;;;;9.41;47.35;98695.99;258382;1116;114698;-70
2021/04/02 20:42:02;;;;;;;46.35;27.55;;;;;;;9.29;47.53;98704.71;258415;1114;114784;-72
2021/04/02 20:47:05;;;;;;;54.53;28.50;;;;;;;9.18;47.73;98700.92;258408;1116;115073;-73
2021/04/02 20:52:08;;;;;;;55.10;29.18;;;;;;;9.09;48.76;98696.16;258344;1116;114792;-71
2021/04/02 20:57:11;;;;;;;54.53;32.85;;;;;;;9.00;48.50;98691.41;258323;1116;114780;-71
2021/04/02 21:02:14;;;;;;;53.55;31.15;;;;;;;8.89;48.83;98699.19;258393;1116;114886;-71
2021/04/02 21:07:16;;;;;;;61.40;33.08;;;;;;;8.81;49.38;98704.11;258264;1116;114729;-71
2021/04/02 21:12:19;;;;;;;59.60;32.50;;;;;;;8.68;49.51;98699.53;255035;1116;114609;-70
2021/04/02 21:17:22;;;;;;;54.80;31.28;;;;;;;8.53;49.01;98713.72;258466;1114;114693;-70
2021/04/02 21:22:25;;;;;;;54.90;31.05;;;;;;;8.44;49.47;98706.30;258324;1114;114452;-71
2021/04/02 21:27:27;;;;;;;55.75;31.25;;;;;;;8.36;49.71;98695.27;258362;1115;114559;-69
2021/04/02 21:32:32;;;;;;;48.13;26.30;;;;;;;8.32;50.08;98678.66;258219;1116;114593;-69
2021/04/02 21:37:35;;;;;;;56.35;32.33;;;;;;;8.33;49.77;98661.83;258459;1116;116332;-71
2021/04/02 21:42:38;;;;;;;64.93;32.23;;;;;;;8.28;49.77;98672.67;258338;1116;114601;-68
2021/04/02 21:47:42;;;;;;;59.23;33.80;;;;;;;8.22;50.23;98683.66;258309;1115;114334;-67
2021/04/02 21:52:45;;;;;;;29.25;16.95;;;;;;;8.20;49.30;98674.94;258391;1116;114918;-67
2021/04/02 21:57:49;;;;;;;44.78;25.18;;;;;;;8.28;49.42;98666.52;258290;1116;114685;-69
2021/04/02 22:02:52;;;;;;;57.20;28.53;;;;;;;8.34;49.76;98674.13;258406;1116;114428;-67
2021/04/02 22:07:55;;;;;;;56.18;28.93;;;;;;;8.37;49.48;98687.20;258334;1116;114700;-69
2021/04/02 22:12:58;;;;;;;54.67;28.77;;;;;;;8.34;49.71;98691.84;258400;1114;117657;-68
2021/04/02 22:18:01;;;;;;;44.48;24.18;;;;;;;8.26;49.85;98701.09;258306;1116;115214;-69
2021/04/02 22:23:16;;;;;;;53.33;26.68;;;;;;;8.26;49.19;98710.84;258212;1116;114839;-69
2021/04/02 22:28:19;;;;;;;53.15;27.40;;;;;;;8.20;49.67;98708.55;256891;1116;115020;-74
2021/04/02 22:33:22;;;;;;;49.63;27.20;;;;;;;8.16;48.80;98705.22;257345;1116;114465;-75
2021/04/02 22:38:25;;;;;;;51.30;26.48;;;;;;;8.15;49.19;98714.13;258016;1116;114615;-74
2021/04/02 22:43:28;;;;;;;55.58;27.73;;;;;;;8.16;49.16;98701.72;258357;1116;114422;-74
2021/04/02 22:48:32;;;;;;;54.08;28.13;;;;;;;8.09;49.27;98710.97;257414;1116;114844;-77
2021/04/02 22:53:35;;;;;;;53.03;28.48;;;;;;;8.01;49.74;98701.63;257739;1116;114661;-74
2021/04/02 22:58:38;;;;;;;53.50;28.03;;;;;;;7.96;49.14;98710.80;258356;1116;115003;-75
2021/04/02 23:03:41;;;;;;;44.70;25.83;;;;;;;7.90;49.04;98719.09;258419;1114;114635;-75
2021/04/02 23:08:44;;;;;;;49.30;25.10;;;;;;;7.89;49.35;98741.23;258362;1116;114527;-75
2021/04/02 23:13:46;;;;;;;43.55;22.68;;;;;;;7.92;49.17;98723.38;258332;1116;114840;-75